sensor_id;sensor_type;location;lat;lon;timestamp;temperature;humidity
21037;DHT22;10677;50.942;4.028;2023-04-06T00:00:59;10.70;99.90
21037;DHT22;10677;50.942;4.028;2023-04-06T00:03:25;10.70;99.90
21037;DHT22;10677;50.942;4.028;2023-04-06T00:05:52;10.60;99.90
21037;DHT22;10677;50.942;4.028;2023-04-06T00:08:18;10.60;99.90
21037;DHT22;10677;50.942;4.028;2023-04-06T00:10:43;10.50;99.90
21037;DHT22;10677;50.942;4.028;2023-04-06T00:13:09;10.40;99.90
21037;DHT22;10677;50.942;4.028;2023-04-06T00:15:35;10.40;99.90
21037;DHT22;10677;50.942;4.028;2023-04-06T00:18:02;10.40;99.90
21037;DHT22;10677;50.942;4.028;2023-04-06T00:20:27;10.40;99.90
21037;DHT22;10677;50.942;4.028;2023-04-06T00:22:53;10.30;99.90
21037;DHT22;10677;50.942;4.028;2023-04-06T00:25:19;10.40;99.90
21037;DHT22;10677;50.942;4.028;2023-04-06T00:27:45;10.30;99.90
21037;DHT22;10677;50.942;4.028;2023-04-06T00:30:11;10.20;99.90
21037;DHT22;10677;50.942;4.028;2023-04-06T00:32:37;10.00;99.90
21037;DHT22;10677;50.942;4.028;2023-04-06T00:35:06;9.90;99.90
21037;DHT22;10677;50.942;4.028;2023-04-06T00:37:32;9.90;99.90
21037;DHT22;10677;50.942;4.028;2023-04-06T00:39:58;9.90;99.90
21037;DHT22;10677;50.942;4.028;2023-04-06T00:42:24;9.90;99.90
21037;DHT22;10677;50.942;4.028;2023-04-06T00:44:54;9.90;99.90
21037;DHT22;10677;50.942;4.028;2023-04-06T00:47:20;9.90;99.90
21037;DHT22;10677;50.942;4.028;2023-04-06T00:49:46;9.80;99.90
21037;DHT22;10677;50.942;4.028;2023-04-06T00:52:12;9.70;99.90
21037;DHT22;10677;50.942;4.028;2023-04-06T00:54:37;9.60;99.90
21037;DHT22;10677;50.942;4.028;2023-04-06T00:57:03;9.70;99.90
21037;DHT22;10677;50.942;4.028;2023-04-06T00:59:29;9.60;99.90
21037;DHT22;10677;50.942;4.028;2023-04-06T01:01:55;9.60;99.90
21037;DHT22;10677;50.942;4.028;2023-04-06T01:04:21;9.60;99.90
21037;DHT22;10677;50.942;4.028;2023-04-06T01:06:49;9.60;99.90
21037;DHT22;10677;50.942;4.028;2023-04-06T01:09:15;9.70;99.90
21037;DHT22;10677;50.942;4.028;2023-04-06T01:11:41;9.70;99.90
21037;DHT22;10677;50.942;4.028;2023-04-06T01:14:07;9.70;99.90
21037;DHT22;10677;50.942;4.028;2023-04-06T01:16:33;9.70;99.90
21037;DHT22;10677;50.942;4.028;2023-04-06T01:18:59;9.70;99.90
21037;DHT22;10677;50.942;4.028;2023-04-06T01:21:24;9.70;99.90
21037;DHT22;10677;50.942;4.028;2023-04-06T01:23:50;9.70;99.90
21037;DHT22;10677;50.942;4.028;2023-04-06T01:26:16;9.70;99.90
21037;DHT22;10677;50.942;4.028;2023-04-06T01:28:42;9.70;99.90
21037;DHT22;10677;50.942;4.028;2023-04-06T01:31:08;9.70;99.90
21037;DHT22;10677;50.942;4.028;2023-04-06T01:33:34;9.70;99.90
21037;DHT22;10677;50.942;4.028;2023-04-06T01:36:01;9.70;99.90
21037;DHT22;10677;50.942;4.028;2023-04-06T01:38:26;9.70;99.90
21037;DHT22;10677;50.942;4.028;2023-04-06T01:40:53;9.80;99.90
21037;DHT22;10677;50.942;4.028;2023-04-06T01:43:19;9.70;99.90
21037;DHT22;10677;50.942;4.028;2023-04-06T01:45:45;9.70;99.90
21037;DHT22;10677;50.942;4.028;2023-04-06T01:48:10;9.70;99.90
21037;DHT22;10677;50.942;4.028;2023-04-06T01:50:36;9.70;99.90
21037;DHT22;10677;50.942;4.028;2023-04-06T01:53:02;9.70;99.90
21037;DHT22;10677;50.942;4.028;2023-04-06T01:55:27;9.70;99.90
21037;DHT22;10677;50.942;4.028;2023-04-06T01:57:53;9.70;99.90
21037;DHT22;10677;50.942;4.028;2023-04-06T02:00:18;9.70;99.90
21037;DHT22;10677;50.942;4.028;2023-04-06T02:02:44;9.80;99.90
21037;DHT22;10677;50.942;4.028;2023-04-06T02:05:11;9.70;99.90
21037;DHT22;10677;50.942;4.028;2023-04-06T02:07:36;9.70;99.90
21037;DHT22;10677;50.942;4.028;2023-04-06T02:10:02;9.70;99.90
21037;DHT22;10677;50.942;4.028;2023-04-06T02:12:28;9.60;99.90
21037;DHT22;10677;50.942;4.028;2023-04-06T02:14:54;9.50;99.90
21037;DHT22;10677;50.942;4.028;2023-04-06T02:17:19;9.50;99.90
21037;DHT22;10677;50.942;4.028;2023-04-06T02:19:45;9.50;99.90
21037;DHT22;10677;50.942;4.028;2023-04-06T02:22:11;9.60;99.90
21037;DHT22;10677;50.942;4.028;2023-04-06T02:24:37;9.50;99.90
21037;DHT22;10677;50.942;4.028;2023-04-06T02:27:03;9.50;99.90
21037;DHT22;10677;50.942;4.028;2023-04-06T02:29:28;9.50;99.90
21037;DHT22;10677;50.942;4.028;2023-04-06T02:31:54;9.50;99.90
21037;DHT22;10677;50.942;4.028;2023-04-06T02:34:20;9.50;99.90
21037;DHT22;10677;50.942;4.028;2023-04-06T02:36:46;9.50;99.90
21037;DHT22;10677;50.942;4.028;2023-04-06T02:39:12;9.60;99.90
21037;DHT22;10677;50.942;4.028;2023-04-06T02:41:38;9.50;99.90
21037;DHT22;10677;50.942;4.028;2023-04-06T02:44:07;9.50;99.90
21037;DHT22;10677;50.942;4.028;2023-04-06T02:46:32;9.50;99.90
21037;DHT22;10677;50.942;4.028;2023-04-06T02:48:58;9.50;99.90
21037;DHT22;10677;50.942;4.028;2023-04-06T02:51:26;9.40;99.90
21037;DHT22;10677;50.942;4.028;2023-04-06T02:53:52;9.40;99.90
21037;DHT22;10677;50.942;4.028;2023-04-06T02:56:17;9.40;99.90
21037;DHT22;10677;50.942;4.028;2023-04-06T02:58:43;9.40;99.90
21037;DHT22;10677;50.942;4.028;2023-04-06T03:01:09;9.40;99.90
21037;DHT22;10677;50.942;4.028;2023-04-06T03:03:35;9.40;99.90
21037;DHT22;10677;50.942;4.028;2023-04-06T03:06:00;9.30;99.90
21037;DHT22;10677;50.942;4.028;2023-04-06T03:08:26;9.30;99.90
21037;DHT22;10677;50.942;4.028;2023-04-06T03:10:52;9.30;99.90
21037;DHT22;10677;50.942;4.028;2023-04-06T03:13:17;9.30;99.90
21037;DHT22;10677;50.942;4.028;2023-04-06T03:15:43;9.20;99.90
21037;DHT22;10677;50.942;4.028;2023-04-06T03:18:08;9.20;99.90
21037;DHT22;10677;50.942;4.028;2023-04-06T03:20:34;9.10;99.90
21037;DHT22;10677;50.942;4.028;2023-04-06T03:23:00;9.20;99.90
21037;DHT22;10677;50.942;4.028;2023-04-06T03:25:25;9.20;99.90
21037;DHT22;10677;50.942;4.028;2023-04-06T03:27:51;9.20;99.90
21037;DHT22;10677;50.942;4.028;2023-04-06T03:30:17;9.10;99.90
21037;DHT22;10677;50.942;4.028;2023-04-06T03:32:46;9.10;99.90
21037;DHT22;10677;50.942;4.028;2023-04-06T03:35:12;9.10;99.90
21037;DHT22;10677;50.942;4.028;2023-04-06T03:37:37;9.20;99.90
21037;DHT22;10677;50.942;4.028;2023-04-06T03:40:04;9.20;99.90
21037;DHT22;10677;50.942;4.028;2023-04-06T03:42:30;9.30;99.90
21037;DHT22;10677;50.942;4.028;2023-04-06T03:44:56;9.30;99.90
21037;DHT22;10677;50.942;4.028;2023-04-06T03:47:22;9.30;99.90
21037;DHT22;10677;50.942;4.028;2023-04-06T03:49:47;9.30;99.90
21037;DHT22;10677;50.942;4.028;2023-04-06T03:52:13;9.40;99.90
21037;DHT22;10677;50.942;4.028;2023-04-06T03:54:39;9.40;99.90
21037;DHT22;10677;50.942;4.028;2023-04-06T03:57:05;9.50;99.90
21037;DHT22;10677;50.942;4.028;2023-04-06T03:59:30;9.60;99.90
21037;DHT22;10677;50.942;4.028;2023-04-06T04:01:56;9.60;99.90
21037;DHT22;10677;50.942;4.028;2023-04-06T04:04:22;9.60;99.90
21037;DHT22;10677;50.942;4.028;2023-04-06T04:06:47;9.70;99.90
21037;DHT22;10677;50.942;4.028;2023-04-06T04:09:13;9.80;99.90
21037;DHT22;10677;50.942;4.028;2023-04-06T04:11:39;9.70;99.90
21037;DHT22;10677;50.942;4.028;2023-04-06T04:14:04;9.70;99.90
21037;DHT22;10677;50.942;4.028;2023-04-06T04:16:30;9.60;99.90
21037;DHT22;10677;50.942;4.028;2023-04-06T04:18:56;9.60;99.90
21037;DHT22;10677;50.942;4.028;2023-04-06T04:21:23;9.60;99.90
21037;DHT22;10677;50.942;4.028;2023-04-06T04:23:49;9.60;99.90
21037;DHT22;10677;50.942;4.028;2023-04-06T04:26:15;9.70;99.90
21037;DHT22;10677;50.942;4.028;2023-04-06T04:28:40;9.70;99.90
21037;DHT22;10677;50.942;4.028;2023-04-06T04:31:06;9.70;99.90
21037;DHT22;10677;50.942;4.028;2023-04-06T04:33:32;9.70;99.90
21037;DHT22;10677;50.942;4.028;2023-04-06T04:35:57;9.70;99.90
21037;DHT22;10677;50.942;4.028;2023-04-06T04:38:23;9.70;99.90
21037;DHT22;10677;50.942;4.028;2023-04-06T04:40:48;9.80;99.90
21037;DHT22;10677;50.942;4.028;2023-04-06T04:43:14;9.80;99.90
21037;DHT22;10677;50.942;4.028;2023-04-06T04:45:40;9.80;99.90
21037;DHT22;10677;50.942;4.028;2023-04-06T04:48:06;9.70;99.90
21037;DHT22;10677;50.942;4.028;2023-04-06T04:50:33;9.70;99.90
21037;DHT22;10677;50.942;4.028;2023-04-06T04:52:58;9.80;99.90
21037;DHT22;10677;50.942;4.028;2023-04-06T04:55:24;9.80;99.90
21037;DHT22;10677;50.942;4.028;2023-04-06T04:57:50;9.90;99.90
21037;DHT22;10677;50.942;4.028;2023-04-06T05:00:16;9.90;99.90
21037;DHT22;10677;50.942;4.028;2023-04-06T05:02:41;9.90;99.90
21037;DHT22;10677;50.942;4.028;2023-04-06T05:05:07;9.90;99.90
21037;DHT22;10677;50.942;4.028;2023-04-06T05:07:33;9.90;99.90
21037;DHT22;10677;50.942;4.028;2023-04-06T05:09:59;9.90;99.90
21037;DHT22;10677;50.942;4.028;2023-04-06T05:12:25;9.90;99.90
21037;DHT22;10677;50.942;4.028;2023-04-06T05:14:53;9.90;99.90
21037;DHT22;10677;50.942;4.028;2023-04-06T05:17:19;9.80;99.90
21037;DHT22;10677;50.942;4.028;2023-04-06T05:19:45;9.70;99.90
21037;DHT22;10677;50.942;4.028;2023-04-06T05:22:11;9.70;99.90
21037;DHT22;10677;50.942;4.028;2023-04-06T05:24:37;9.70;99.90
21037;DHT22;10677;50.942;4.028;2023-04-06T05:27:04;9.70;99.90
21037;DHT22;10677;50.942;4.028;2023-04-06T05:29:30;9.70;99.90
21037;DHT22;10677;50.942;4.028;2023-04-06T05:31:56;9.70;99.90
21037;DHT22;10677;50.942;4.028;2023-04-06T05:34:22;9.70;99.90
21037;DHT22;10677;50.942;4.028;2023-04-06T05:36:47;9.70;99.90
21037;DHT22;10677;50.942;4.028;2023-04-06T05:39:13;9.70;99.90
21037;DHT22;10677;50.942;4.028;2023-04-06T05:41:39;9.70;99.90
21037;DHT22;10677;50.942;4.028;2023-04-06T05:44:04;9.70;99.90
21037;DHT22;10677;50.942;4.028;2023-04-06T05:46:30;9.60;99.90
21037;DHT22;10677;50.942;4.028;2023-04-06T05:48:56;9.60;99.90
21037;DHT22;10677;50.942;4.028;2023-04-06T05:51:21;9.70;99.90
21037;DHT22;10677;50.942;4.028;2023-04-06T05:53:47;9.70;99.90
21037;DHT22;10677;50.942;4.028;2023-04-06T05:56:13;9.70;99.90
21037;DHT22;10677;50.942;4.028;2023-04-06T05:58:38;9.80;99.90
21037;DHT22;10677;50.942;4.028;2023-04-06T06:01:04;9.80;99.90
21037;DHT22;10677;50.942;4.028;2023-04-06T06:03:30;9.80;99.90
21037;DHT22;10677;50.942;4.028;2023-04-06T06:06:03;9.80;99.90
21037;DHT22;10677;50.942;4.028;2023-04-06T06:08:29;9.70;99.90
21037;DHT22;10677;50.942;4.028;2023-04-06T06:10:55;9.70;99.90
21037;DHT22;10677;50.942;4.028;2023-04-06T06:13:22;9.70;99.90
21037;DHT22;10677;50.942;4.028;2023-04-06T06:15:48;9.70;99.90
21037;DHT22;10677;50.942;4.028;2023-04-06T06:18:14;9.80;99.90
21037;DHT22;10677;50.942;4.028;2023-04-06T06:20:40;9.70;99.90
21037;DHT22;10677;50.942;4.028;2023-04-06T06:23:05;9.60;99.90
21037;DHT22;10677;50.942;4.028;2023-04-06T06:25:31;9.60;99.90
21037;DHT22;10677;50.942;4.028;2023-04-06T06:27:57;9.50;99.90
21037;DHT22;10677;50.942;4.028;2023-04-06T06:30:23;9.40;99.90
21037;DHT22;10677;50.942;4.028;2023-04-06T06:32:50;9.40;99.90
21037;DHT22;10677;50.942;4.028;2023-04-06T06:35:16;9.40;99.90
21037;DHT22;10677;50.942;4.028;2023-04-06T06:37:42;9.40;99.90
21037;DHT22;10677;50.942;4.028;2023-04-06T06:40:09;9.40;99.90
21037;DHT22;10677;50.942;4.028;2023-04-06T06:42:35;9.30;99.90
21037;DHT22;10677;50.942;4.028;2023-04-06T06:45:01;9.20;99.90
21037;DHT22;10677;50.942;4.028;2023-04-06T06:47:27;9.10;99.90
21037;DHT22;10677;50.942;4.028;2023-04-06T06:49:53;9.10;99.90
21037;DHT22;10677;50.942;4.028;2023-04-06T06:52:18;9.10;99.90
21037;DHT22;10677;50.942;4.028;2023-04-06T06:54:44;9.10;99.90
21037;DHT22;10677;50.942;4.028;2023-04-06T06:57:10;9.00;99.90
21037;DHT22;10677;50.942;4.028;2023-04-06T06:59:35;9.00;99.90
21037;DHT22;10677;50.942;4.028;2023-04-06T07:02:02;9.00;99.90
21037;DHT22;10677;50.942;4.028;2023-04-06T07:04:28;8.90;99.90
21037;DHT22;10677;50.942;4.028;2023-04-06T07:06:54;8.90;99.90
21037;DHT22;10677;50.942;4.028;2023-04-06T07:09:20;9.00;99.90
21037;DHT22;10677;50.942;4.028;2023-04-06T07:11:45;9.00;99.90
21037;DHT22;10677;50.942;4.028;2023-04-06T07:14:12;9.00;99.90
21037;DHT22;10677;50.942;4.028;2023-04-06T07:16:38;9.00;99.90
21037;DHT22;10677;50.942;4.028;2023-04-06T07:19:03;9.00;99.90
21037;DHT22;10677;50.942;4.028;2023-04-06T07:21:29;9.10;99.90
21037;DHT22;10677;50.942;4.028;2023-04-06T07:23:55;9.10;99.90
21037;DHT22;10677;50.942;4.028;2023-04-06T07:26:20;9.10;99.90
21037;DHT22;10677;50.942;4.028;2023-04-06T07:28:46;9.10;99.90
21037;DHT22;10677;50.942;4.028;2023-04-06T07:31:13;9.10;99.90
21037;DHT22;10677;50.942;4.028;2023-04-06T07:33:39;9.20;99.90
21037;DHT22;10677;50.942;4.028;2023-04-06T07:36:05;9.10;99.90
21037;DHT22;10677;50.942;4.028;2023-04-06T07:38:31;9.20;99.90
21037;DHT22;10677;50.942;4.028;2023-04-06T07:40:56;9.10;99.90
21037;DHT22;10677;50.942;4.028;2023-04-06T07:43:22;9.20;99.90
21037;DHT22;10677;50.942;4.028;2023-04-06T07:45:48;9.30;99.90
21037;DHT22;10677;50.942;4.028;2023-04-06T07:48:13;9.30;99.90
21037;DHT22;10677;50.942;4.028;2023-04-06T07:50:39;9.40;99.90
21037;DHT22;10677;50.942;4.028;2023-04-06T07:53:05;9.50;99.90
21037;DHT22;10677;50.942;4.028;2023-04-06T07:55:31;9.50;99.90
21037;DHT22;10677;50.942;4.028;2023-04-06T07:57:56;9.50;99.90
21037;DHT22;10677;50.942;4.028;2023-04-06T08:00:22;9.50;99.90
21037;DHT22;10677;50.942;4.028;2023-04-06T08:02:48;9.40;99.90
21037;DHT22;10677;50.942;4.028;2023-04-06T08:05:14;9.40;99.90
21037;DHT22;10677;50.942;4.028;2023-04-06T08:07:40;9.40;99.90
21037;DHT22;10677;50.942;4.028;2023-04-06T08:10:05;9.60;99.90
21037;DHT22;10677;50.942;4.028;2023-04-06T08:12:32;9.50;99.90
21037;DHT22;10677;50.942;4.028;2023-04-06T08:14:58;9.40;99.90
21037;DHT22;10677;50.942;4.028;2023-04-06T08:17:25;9.50;99.90
21037;DHT22;10677;50.942;4.028;2023-04-06T08:19:51;9.50;99.90
21037;DHT22;10677;50.942;4.028;2023-04-06T08:22:16;9.50;99.90
21037;DHT22;10677;50.942;4.028;2023-04-06T08:24:42;9.60;99.90
21037;DHT22;10677;50.942;4.028;2023-04-06T08:27:08;9.50;99.90
21037;DHT22;10677;50.942;4.028;2023-04-06T08:29:33;9.50;99.90
21037;DHT22;10677;50.942;4.028;2023-04-06T08:31:59;9.50;99.90
21037;DHT22;10677;50.942;4.028;2023-04-06T08:34:25;9.50;99.90
21037;DHT22;10677;50.942;4.028;2023-04-06T08:36:51;9.50;99.90
21037;DHT22;10677;50.942;4.028;2023-04-06T08:39:18;9.40;99.90
21037;DHT22;10677;50.942;4.028;2023-04-06T08:41:51;9.40;99.90
21037;DHT22;10677;50.942;4.028;2023-04-06T08:44:18;9.40;99.90
21037;DHT22;10677;50.942;4.028;2023-04-06T08:46:44;9.60;99.90
21037;DHT22;10677;50.942;4.028;2023-04-06T08:49:10;9.60;99.90
21037;DHT22;10677;50.942;4.028;2023-04-06T08:51:37;9.60;99.90
21037;DHT22;10677;50.942;4.028;2023-04-06T08:54:03;9.50;99.90
21037;DHT22;10677;50.942;4.028;2023-04-06T08:56:29;9.50;99.90
21037;DHT22;10677;50.942;4.028;2023-04-06T08:58:55;9.50;99.90
21037;DHT22;10677;50.942;4.028;2023-04-06T09:01:23;9.70;99.90
21037;DHT22;10677;50.942;4.028;2023-04-06T09:03:53;9.70;99.90
21037;DHT22;10677;50.942;4.028;2023-04-06T09:06:21;9.60;99.90
21037;DHT22;10677;50.942;4.028;2023-04-06T09:08:46;9.60;99.90
21037;DHT22;10677;50.942;4.028;2023-04-06T09:11:14;9.60;99.90
21037;DHT22;10677;50.942;4.028;2023-04-06T09:13:48;9.70;99.90
21037;DHT22;10677;50.942;4.028;2023-04-06T09:16:14;9.70;99.90
21037;DHT22;10677;50.942;4.028;2023-04-06T09:18:40;9.70;99.90
21037;DHT22;10677;50.942;4.028;2023-04-06T09:21:07;9.90;99.90
21037;DHT22;10677;50.942;4.028;2023-04-06T09:23:33;10.00;99.90
21037;DHT22;10677;50.942;4.028;2023-04-06T09:28:55;10.10;99.90
21037;DHT22;10677;50.942;4.028;2023-04-06T09:31:25;10.00;99.90
21037;DHT22;10677;50.942;4.028;2023-04-06T09:33:51;10.10;99.90
21037;DHT22;10677;50.942;4.028;2023-04-06T09:36:18;10.10;99.90
21037;DHT22;10677;50.942;4.028;2023-04-06T09:39:04;10.00;99.90
21037;DHT22;10677;50.942;4.028;2023-04-06T09:41:32;10.10;99.90
21037;DHT22;10677;50.942;4.028;2023-04-06T09:44:08;10.00;99.90
21037;DHT22;10677;50.942;4.028;2023-04-06T09:46:41;10.00;99.90
21037;DHT22;10677;50.942;4.028;2023-04-06T09:49:08;9.90;99.90
21037;DHT22;10677;50.942;4.028;2023-04-06T09:51:59;9.70;99.90
21037;DHT22;10677;50.942;4.028;2023-04-06T09:54:28;9.70;99.90
21037;DHT22;10677;50.942;4.028;2023-04-06T09:57:03;9.70;99.90
21037;DHT22;10677;50.942;4.028;2023-04-06T09:59:48;9.60;99.90
21037;DHT22;10677;50.942;4.028;2023-04-06T10:05:30;9.70;99.90
21037;DHT22;10677;50.942;4.028;2023-04-06T10:08:02;9.80;99.90
21037;DHT22;10677;50.942;4.028;2023-04-06T10:10:30;9.90;99.90
21037;DHT22;10677;50.942;4.028;2023-04-06T10:12:56;10.00;99.90
21037;DHT22;10677;50.942;4.028;2023-04-06T10:15:23;10.00;99.90
21037;DHT22;10677;50.942;4.028;2023-04-06T10:17:49;10.10;99.90
21037;DHT22;10677;50.942;4.028;2023-04-06T10:20:29;10.00;99.90
21037;DHT22;10677;50.942;4.028;2023-04-06T10:23:06;9.90;99.90
21037;DHT22;10677;50.942;4.028;2023-04-06T10:25:34;9.90;99.90
21037;DHT22;10677;50.942;4.028;2023-04-06T10:28:06;9.90;99.90
21037;DHT22;10677;50.942;4.028;2023-04-06T10:30:33;9.90;99.90
21037;DHT22;10677;50.942;4.028;2023-04-06T10:32:59;9.90;99.90
21037;DHT22;10677;50.942;4.028;2023-04-06T10:35:36;9.90;99.90
21037;DHT22;10677;50.942;4.028;2023-04-06T10:38:04;9.90;99.90
21037;DHT22;10677;50.942;4.028;2023-04-06T10:40:30;10.00;99.90
21037;DHT22;10677;50.942;4.028;2023-04-06T10:43:27;10.10;99.90
21037;DHT22;10677;50.942;4.028;2023-04-06T10:45:59;10.20;99.90
21037;DHT22;10677;50.942;4.028;2023-04-06T10:48:35;10.30;99.90
21037;DHT22;10677;50.942;4.028;2023-04-06T10:51:01;10.40;99.90
21037;DHT22;10677;50.942;4.028;2023-04-06T10:53:27;10.40;99.90
21037;DHT22;10677;50.942;4.028;2023-04-06T10:55:57;10.50;99.90
21037;DHT22;10677;50.942;4.028;2023-04-06T10:58:26;10.50;99.90
21037;DHT22;10677;50.942;4.028;2023-04-06T11:00:53;10.60;99.90
21037;DHT22;10677;50.942;4.028;2023-04-06T11:03:19;10.60;99.90
21037;DHT22;10677;50.942;4.028;2023-04-06T11:05:50;10.50;99.90
21037;DHT22;10677;50.942;4.028;2023-04-06T11:08:31;10.50;99.90
21037;DHT22;10677;50.942;4.028;2023-04-06T11:11:06;10.60;99.90
21037;DHT22;10677;50.942;4.028;2023-04-06T11:14:01;10.50;99.90
21037;DHT22;10677;50.942;4.028;2023-04-06T11:16:27;10.40;99.90
21037;DHT22;10677;50.942;4.028;2023-04-06T11:21:30;10.30;99.90
21037;DHT22;10677;50.942;4.028;2023-04-06T11:24:06;10.20;99.90
21037;DHT22;10677;50.942;4.028;2023-04-06T11:26:40;10.30;99.90
21037;DHT22;10677;50.942;4.028;2023-04-06T11:29:07;10.30;99.90
21037;DHT22;10677;50.942;4.028;2023-04-06T11:31:39;10.40;99.90
21037;DHT22;10677;50.942;4.028;2023-04-06T11:34:13;10.50;99.90
21037;DHT22;10677;50.942;4.028;2023-04-06T11:36:43;10.50;99.90
21037;DHT22;10677;50.942;4.028;2023-04-06T11:39:10;10.40;99.90
21037;DHT22;10677;50.942;4.028;2023-04-06T11:41:36;10.40;99.90
21037;DHT22;10677;50.942;4.028;2023-04-06T11:44:03;10.40;99.90
21037;DHT22;10677;50.942;4.028;2023-04-06T11:46:28;10.20;99.90
21037;DHT22;10677;50.942;4.028;2023-04-06T11:48:58;10.20;99.90
21037;DHT22;10677;50.942;4.028;2023-04-06T11:51:25;10.40;99.90
21037;DHT22;10677;50.942;4.028;2023-04-06T11:53:52;10.30;99.90
21037;DHT22;10677;50.942;4.028;2023-04-06T11:56:29;10.30;99.90
21037;DHT22;10677;50.942;4.028;2023-04-06T11:58:58;10.40;99.90
21037;DHT22;10677;50.942;4.028;2023-04-06T12:01:27;10.40;99.90
21037;DHT22;10677;50.942;4.028;2023-04-06T12:03:53;10.30;99.90
21037;DHT22;10677;50.942;4.028;2023-04-06T12:06:19;10.30;99.90
21037;DHT22;10677;50.942;4.028;2023-04-06T12:08:45;10.10;99.90
21037;DHT22;10677;50.942;4.028;2023-04-06T12:11:11;10.10;99.90
21037;DHT22;10677;50.942;4.028;2023-04-06T12:13:37;10.10;99.90
21037;DHT22;10677;50.942;4.028;2023-04-06T12:16:02;10.10;99.90
21037;DHT22;10677;50.942;4.028;2023-04-06T12:18:29;10.00;99.90
21037;DHT22;10677;50.942;4.028;2023-04-06T12:20:55;10.00;99.90
21037;DHT22;10677;50.942;4.028;2023-04-06T12:23:22;10.00;99.90
21037;DHT22;10677;50.942;4.028;2023-04-06T12:25:48;9.90;99.90
21037;DHT22;10677;50.942;4.028;2023-04-06T12:28:13;9.90;99.90
21037;DHT22;10677;50.942;4.028;2023-04-06T12:30:39;9.90;99.90
21037;DHT22;10677;50.942;4.028;2023-04-06T12:33:06;9.80;99.90
21037;DHT22;10677;50.942;4.028;2023-04-06T12:35:35;9.80;99.90
21037;DHT22;10677;50.942;4.028;2023-04-06T12:38:02;9.80;99.90
21037;DHT22;10677;50.942;4.028;2023-04-06T12:40:27;9.80;99.90
21037;DHT22;10677;50.942;4.028;2023-04-06T12:42:53;9.80;99.90
21037;DHT22;10677;50.942;4.028;2023-04-06T12:45:19;9.90;99.90
21037;DHT22;10677;50.942;4.028;2023-04-06T12:47:45;9.80;99.90
21037;DHT22;10677;50.942;4.028;2023-04-06T12:50:10;9.90;99.90
21037;DHT22;10677;50.942;4.028;2023-04-06T12:52:36;9.90;99.90
21037;DHT22;10677;50.942;4.028;2023-04-06T12:55:05;10.00;99.90
21037;DHT22;10677;50.942;4.028;2023-04-06T12:57:31;10.10;99.90
21037;DHT22;10677;50.942;4.028;2023-04-06T12:59:57;10.20;99.90
21037;DHT22;10677;50.942;4.028;2023-04-06T13:02:23;10.30;99.90
21037;DHT22;10677;50.942;4.028;2023-04-06T13:04:49;10.30;99.90
21037;DHT22;10677;50.942;4.028;2023-04-06T13:07:15;10.40;99.90
21037;DHT22;10677;50.942;4.028;2023-04-06T13:09:41;10.40;99.90
21037;DHT22;10677;50.942;4.028;2023-04-06T13:12:07;10.50;99.90
21037;DHT22;10677;50.942;4.028;2023-04-06T13:14:33;10.50;99.90
21037;DHT22;10677;50.942;4.028;2023-04-06T13:16:59;10.60;99.90
21037;DHT22;10677;50.942;4.028;2023-04-06T13:19:25;10.70;99.90
21037;DHT22;10677;50.942;4.028;2023-04-06T13:21:52;10.70;99.90
21037;DHT22;10677;50.942;4.028;2023-04-06T13:24:17;10.60;99.90
21037;DHT22;10677;50.942;4.028;2023-04-06T13:26:44;10.70;99.90
21037;DHT22;10677;50.942;4.028;2023-04-06T13:29:10;10.70;99.90
21037;DHT22;10677;50.942;4.028;2023-04-06T13:31:36;10.60;99.90
21037;DHT22;10677;50.942;4.028;2023-04-06T13:34:02;10.60;99.90
21037;DHT22;10677;50.942;4.028;2023-04-06T13:36:27;10.60;99.90
21037;DHT22;10677;50.942;4.028;2023-04-06T13:38:53;10.60;99.90
21037;DHT22;10677;50.942;4.028;2023-04-06T13:41:24;10.50;99.90
21037;DHT22;10677;50.942;4.028;2023-04-06T13:43:50;10.50;99.90
21037;DHT22;10677;50.942;4.028;2023-04-06T13:46:16;10.50;99.90
21037;DHT22;10677;50.942;4.028;2023-04-06T13:48:43;10.50;99.90
21037;DHT22;10677;50.942;4.028;2023-04-06T13:51:10;10.50;99.90
21037;DHT22;10677;50.942;4.028;2023-04-06T13:53:36;10.60;99.90
21037;DHT22;10677;50.942;4.028;2023-04-06T13:56:01;10.60;99.90
21037;DHT22;10677;50.942;4.028;2023-04-06T13:58:27;10.70;99.90
21037;DHT22;10677;50.942;4.028;2023-04-06T14:00:53;10.60;99.90
21037;DHT22;10677;50.942;4.028;2023-04-06T14:03:19;10.70;99.90
21037;DHT22;10677;50.942;4.028;2023-04-06T14:05:45;10.70;99.90
21037;DHT22;10677;50.942;4.028;2023-04-06T14:08:11;10.70;99.90
21037;DHT22;10677;50.942;4.028;2023-04-06T14:10:40;10.70;99.90
21037;DHT22;10677;50.942;4.028;2023-04-06T14:13:07;10.70;99.90
21037;DHT22;10677;50.942;4.028;2023-04-06T14:15:34;10.70;99.90
21037;DHT22;10677;50.942;4.028;2023-04-06T14:17:59;10.70;99.90
21037;DHT22;10677;50.942;4.028;2023-04-06T14:20:25;10.70;99.90
21037;DHT22;10677;50.942;4.028;2023-04-06T14:22:51;10.80;99.90
21037;DHT22;10677;50.942;4.028;2023-04-06T14:25:18;10.80;99.90
21037;DHT22;10677;50.942;4.028;2023-04-06T14:27:43;10.90;99.90
21037;DHT22;10677;50.942;4.028;2023-04-06T14:30:10;10.90;99.90
21037;DHT22;10677;50.942;4.028;2023-04-06T14:32:36;11.00;99.90
21037;DHT22;10677;50.942;4.028;2023-04-06T14:35:03;11.00;99.90
21037;DHT22;10677;50.942;4.028;2023-04-06T14:37:29;11.00;99.90
21037;DHT22;10677;50.942;4.028;2023-04-06T14:39:55;10.90;99.90
21037;DHT22;10677;50.942;4.028;2023-04-06T14:42:20;11.10;99.90
21037;DHT22;10677;50.942;4.028;2023-04-06T14:44:46;11.20;99.90
21037;DHT22;10677;50.942;4.028;2023-04-06T14:47:14;11.40;99.90
21037;DHT22;10677;50.942;4.028;2023-04-06T14:49:41;11.40;99.90
21037;DHT22;10677;50.942;4.028;2023-04-06T14:52:06;11.50;99.90
21037;DHT22;10677;50.942;4.028;2023-04-06T14:54:32;11.70;99.90
21037;DHT22;10677;50.942;4.028;2023-04-06T14:56:57;12.00;99.90
21037;DHT22;10677;50.942;4.028;2023-04-06T14:59:23;12.10;99.90
21037;DHT22;10677;50.942;4.028;2023-04-06T15:01:49;12.30;99.90
21037;DHT22;10677;50.942;4.028;2023-04-06T15:04:14;12.40;99.90
21037;DHT22;10677;50.942;4.028;2023-04-06T15:06:40;12.60;99.90
21037;DHT22;10677;50.942;4.028;2023-04-06T15:09:06;12.60;99.90
21037;DHT22;10677;50.942;4.028;2023-04-06T15:11:31;12.60;99.90
21037;DHT22;10677;50.942;4.028;2023-04-06T15:13:57;12.70;99.90
21037;DHT22;10677;50.942;4.028;2023-04-06T15:16:23;12.70;99.90
21037;DHT22;10677;50.942;4.028;2023-04-06T15:18:48;12.70;99.90
21037;DHT22;10677;50.942;4.028;2023-04-06T15:21:14;12.70;99.90
21037;DHT22;10677;50.942;4.028;2023-04-06T15:23:40;12.80;99.90
21037;DHT22;10677;50.942;4.028;2023-04-06T15:26:06;12.70;99.90
21037;DHT22;10677;50.942;4.028;2023-04-06T15:28:31;12.60;99.90
21037;DHT22;10677;50.942;4.028;2023-04-06T15:30:57;12.60;99.90
21037;DHT22;10677;50.942;4.028;2023-04-06T15:33:23;12.50;99.90
21037;DHT22;10677;50.942;4.028;2023-04-06T15:35:49;12.50;99.90
21037;DHT22;10677;50.942;4.028;2023-04-06T15:38:14;12.50;99.90
21037;DHT22;10677;50.942;4.028;2023-04-06T15:40:45;12.60;99.90
21037;DHT22;10677;50.942;4.028;2023-04-06T15:43:12;12.70;99.90
21037;DHT22;10677;50.942;4.028;2023-04-06T15:45:38;12.70;99.90